Time;durP1;ratioP1;P1;durP2;ratioP2;P2;SDS_P1;SDS_P2;PMS_P1;PMS_P2;Temp;Humidity;BMP_temperature;BMP_pressure;BME280_temperature;BME280_humidity;BME280_pressure;Samples;Min_cycle;Max_cycle;Signal;HPM_P1;HPM_P2
2022/10/03 00:00:42;;;;;;;;;;;;;;;;;;2132486;27;20343;-47
2022/10/03 00:01:43;;;;;;;;;;;;;;;;;;2132353;27;19967;-47
2022/10/03 00:02:44;;;;;;;;;;;;;;;;;;2132477;27;20443;-47
2022/10/03 00:03:45;;;;;;;;;;;;;;;;;;2132617;27;19924;-46
2022/10/03 00:04:46;;;;;;;;;;;;;;;;;;2132451;27;20296;-46
2022/10/03 00:05:47;;;;;;;;;;;;;;;;;;2132525;27;20029;-47
2022/10/03 00:06:48;;;;;;;;;;;;;;;;;;2132528;27;20399;-45
2022/10/03 00:07:49;;;;;;;;;;;;;;;;;;2132479;27;19923;-46
2022/10/03 00:08:50;;;;;;;;;;;;;;;;;;2132511;27;20382;-47
2022/10/03 00:09:51;;;;;;;;;;;;;;;;;;2132461;27;20385;-46
2022/10/03 00:10:52;;;;;;;;;;;;;;;;;;2132458;27;20285;-46
2022/10/03 00:11:52;;;;;;;;;;;;;;;;;;2132111;27;19934;-48
2022/10/03 00:12:53;;;;;;;;;;;;;;;;;;2132624;27;19923;-47
2022/10/03 00:13:54;;;;;;;;;;;;;;;;;;2132660;27;19923;-46
2022/10/03 00:14:55;;;;;;;;;;;;;;;;;;2132438;27;19970;-47
2022/10/03 00:15:56;;;;;;;;;;;;;;;;;;2132380;27;19923;-47
2022/10/03 00:16:57;;;;;;;;;;;;;;;;;;2132388;27;20022;-47
2022/10/03 00:17:57;;;;;;;;;;;;;;;;;;2132507;27;19927;-46
2022/10/03 00:18:58;;;;;;;;;;;;;;;;;;2132379;27;19976;-46
2022/10/03 00:19:59;;;;;;;;;;;;;;;;;;2132452;27;20188;-46
2022/10/03 00:21:00;;;;;;;;;;;;;;;;;;2132373;27;20391;-46
2022/10/03 00:22:01;;;;;;;;;;;;;;;;;;2132371;27;20399;-46
2022/10/03 00:23:02;;;;;;;;;;;;;;;;;;2132399;27;19923;-46
2022/10/03 00:24:03;;;;;;;;;;;;;;;;;;2132542;27;20440;-46
2022/10/03 00:25:04;;;;;;;;;;;;;;;;;;2132527;27;19922;-43
2022/10/03 00:26:25;;;;;;;;;;;;;;;;;;2132503;27;19958;-43
2022/10/03 00:27:26;;;;;;;;;;;;;;;;;;2132372;27;19945;-43
2022/10/03 00:28:27;;;;;;;;;;;;;;;;;;2132469;27;20367;-44
2022/10/03 00:29:27;;;;;;;;;;;;;;;;;;2132351;27;19923;-43
2022/10/03 00:30:28;;;;;;;;;;;;;;;;;;2132596;27;19923;-44
2022/10/03 00:31:29;;;;;;;;;;;;;;;;;;2132110;27;19927;-43
2022/10/03 00:32:30;;;;;;;;;;;;;;;;;;2132291;27;20015;-43
2022/10/03 00:33:31;;;;;;;;;;;;;;;;;;2132623;27;19924;-45
2022/10/03 00:34:32;;;;;;;;;;;;;;;;;;2132178;27;20006;-45
2022/10/03 00:35:32;;;;;;;;;;;;;;;;;;2132454;27;19927;-46
2022/10/03 00:36:34;;;;;;;;;;;;;;;;;;2132191;27;20360;-46
2022/10/03 00:37:34;;;;;;;;;;;;;;;;;;2132416;27;19923;-46
2022/10/03 00:38:35;;;;;;;;;;;;;;;;;;2132209;27;19989;-46
2022/10/03 00:39:36;;;;;;;;;;;;;;;;;;2132521;27;20164;-45
2022/10/03 00:40:37;;;;;;;;;;;;;;;;;;2132348;27;19923;-45
2022/10/03 00:41:38;;;;;;;;;;;;;;;;;;2132232;27;20387;-45
2022/10/03 00:42:39;;;;;;;;;;;;;;;;;;2132355;27;19923;-45
2022/10/03 00:43:42;;;;;;;;;;;;;;;;;;2132383;27;19923;-46
2022/10/03 00:44:43;;;;;;;;;;;;;;;;;;2132233;27;20332;-47
2022/10/03 00:45:43;;;;;;;;;;;;;;;;;;2132182;27;20018;-46
2022/10/03 00:46:44;;;;;;;;;;;;;;;;;;2132135;27;20009;-46
2022/10/03 00:47:45;;;;;;;;;;;;;;;;;;2132182;27;19923;-47
2022/10/03 00:48:46;;;;;;;;;;;;;;;;;;2132204;27;20405;-46
2022/10/03 00:49:47;;;;;;;;;;;;;;;;;;2132369;27;19949;-46
2022/10/03 00:50:48;;;;;;;;;;;;;;;;;;2132318;27;19948;-46
2022/10/03 00:51:48;;;;;;;;;;;;;;;;;;2132131;27;20292;-46
2022/10/03 00:52:49;;;;;;;;;;;;;;;;;;2132258;27;20424;-46
2022/10/03 00:53:50;;;;;;;;;;;;;;;;;;2132336;27;19923;-46
2022/10/03 00:54:51;;;;;;;;;;;;;;;;;;2131982;27;20052;-47
2022/10/03 00:55:52;;;;;;;;;;;;;;;;;;2132244;27;19927;-47
2022/10/03 00:56:53;;;;;;;;;;;;;;;;;;2132043;27;19923;-47
2022/10/03 00:57:53;;;;;;;;;;;;;;;;;;2131996;27;19923;-46
2022/10/03 00:58:54;;;;;;;;;;;;;;;;;;2132186;27;20010;-48
2022/10/03 00:59:55;;;;;;;;;;;;;;;;;;2132166;27;19976;-48
2022/10/03 01:00:57;;;;;;;;;;;;;;;;;;2132185;27;19930;-47
2022/10/03 01:01:58;;;;;;;;;;;;;;;;;;2132060;27;20453;-49
2022/10/03 01:02:58;;;;;;;;;;;;;;;;;;2132225;27;19927;-45
2022/10/03 01:03:59;;;;;;;;;;;;;;;;;;2132297;27;19923;-49
2022/10/03 01:05:00;;;;;;;;;;;;;;;;;;2132106;27;19962;-49
2022/10/03 01:06:01;;;;;;;;;;;;;;;;;;2132310;27;20134;-43
2022/10/03 01:07:02;;;;;;;;;;;;;;;;;;2132089;27;19970;-44
2022/10/03 01:08:02;;;;;;;;;;;;;;;;;;2132029;27;19927;-45
2022/10/03 01:09:05;;;;;;;;;;;;;;;;;;2132240;27;20014;-44
2022/10/03 01:10:08;;;;;;;;;;;;;;;;;;2132054;27;19923;-44
2022/10/03 01:11:09;;;;;;;;;;;;;;;;;;2132024;27;19923;-44
2022/10/03 01:12:09;;;;;;;;;;;;;;;;;;2131997;27;20402;-43
2022/10/03 01:13:10;;;;;;;;;;;;;;;;;;2132097;27;20358;-43
2022/10/03 01:14:11;;;;;;;;;;;;;;;;;;2132172;27;19941;-43
2022/10/03 01:15:14;;;;;;;;;;;;;;;;;;2132146;27;19930;-43
2022/10/03 01:16:14;;;;;;;;;;;;;;;;;;2132002;27;20294;-44
2022/10/03 01:17:16;;;;;;;;;;;;;;;;;;2132154;27;20017;-47
2022/10/03 01:18:16;;;;;;;;;;;;;;;;;;2132105;27;19975;-46
2022/10/03 01:19:18;;;;;;;;;;;;;;;;;;2132022;27;19924;-48
2022/10/03 01:20:18;;;;;;;;;;;;;;;;;;2132026;27;20395;-47
2022/10/03 01:21:19;;;;;;;;;;;;;;;;;;2131891;27;19930;-47
2022/10/03 01:22:20;;;;;;;;;;;;;;;;;;2131990;27;19923;-46
2022/10/03 01:23:21;;;;;;;;;;;;;;;;;;2131960;27;19950;-46
2022/10/03 01:24:22;;;;;;;;;;;;;;;;;;2131960;27;19923;-47
2022/10/03 01:25:23;;;;;;;;;;;;;;;;;;2132094;27;19970;-46
2022/10/03 01:26:24;;;;;;;;;;;;;;;;;;2131839;27;19922;-46
2022/10/03 01:27:25;;;;;;;;;;;;;;;;;;2132082;27;19923;-47
2022/10/03 01:31:04;;;;;;;;;;;;;;;;;;2131962;27;19943;-47
2022/10/03 01:32:05;;;;;;;;;;;;;;;;;;2131925;27;19923;-47
2022/10/03 01:33:09;;;;;;;;;;;;;;;;;;2131889;27;19923;-47
2022/10/03 01:34:10;;;;;;;;;;;;;;;;;;2131940;27;19922;-46
2022/10/03 01:35:11;;;;;;;;;;;;;;;;;;2131918;27;20013;-46
2022/10/03 01:36:11;;;;;;;;;;;;;;;;;;2132034;27;20363;-47
2022/10/03 01:37:12;;;;;;;;;;;;;;;;;;2131772;27;20021;-47
2022/10/03 01:38:14;;;;;;;;;;;;;;;;;;2132107;27;19938;-48
2022/10/03 01:39:15;;;;;;;;;;;;;;;;;;2131974;27;19953;-46
2022/10/03 01:40:16;;;;;;;;;;;;;;;;;;2131858;27;20475;-48
2022/10/03 01:41:16;;;;;;;;;;;;;;;;;;2131950;27;19923;-47
2022/10/03 01:42:19;;;;;;;;;;;;;;;;;;2131997;27;19952;-44
2022/10/03 01:43:21;;;;;;;;;;;;;;;;;;2132038;27;19927;-44
2022/10/03 01:44:23;;;;;;;;;;;;;;;;;;2131835;27;19927;-45
2022/10/03 01:45:24;;;;;;;;;;;;;;;;;;2131842;27;19930;-44
2022/10/03 01:46:26;;;;;;;;;;;;;;;;;;2131720;27;20372;-44
2022/10/03 01:47:27;;;;;;;;;;;;;;;;;;2131978;27;19968;-43
2022/10/03 01:48:28;;;;;;;;;;;;;;;;;;2131795;27;20330;-44
2022/10/03 01:49:29;;;;;;;;;;;;;;;;;;2131939;27;19923;-43
2022/10/03 01:50:30;;;;;;;;;;;;;;;;;;2131923;27;20372;-43
2022/10/03 01:51:30;;;;;;;;;;;;;;;;;;2131804;27;19927;-43
2022/10/03 01:52:31;;;;;;;;;;;;;;;;;;2131760;27;19927;-43
2022/10/03 01:53:32;;;;;;;;;;;;;;;;;;2131826;27;20384;-43
2022/10/03 01:54:33;;;;;;;;;;;;;;;;;;2131806;27;19962;-43
2022/10/03 01:55:34;;;;;;;;;;;;;;;;;;2131683;27;20284;-43
2022/10/03 01:56:35;;;;;;;;;;;;;;;;;;2131787;27;19984;-43
2022/10/03 01:57:36;;;;;;;;;;;;;;;;;;2131860;27;20447;-44
2022/10/03 01:58:37;;;;;;;;;;;;;;;;;;2131809;27;19930;-43
2022/10/03 01:59:37;;;;;;;;;;;;;;;;;;2131766;27;19927;-44
2022/10/03 02:00:38;;;;;;;;;;;;;;;;;;2131911;27;19923;-44
2022/10/03 02:01:39;;;;;;;;;;;;;;;;;;2131844;27;19923;-43
2022/10/03 02:02:40;;;;;;;;;;;;;;;;;;2131946;27;20270;-44
2022/10/03 02:03:41;;;;;;;;;;;;;;;;;;2131885;27;19927;-44
2022/10/03 02:04:42;;;;;;;;;;;;;;;;;;2131736;27;20006;-43
2022/10/03 02:05:43;;;;;;;;;;;;;;;;;;2131746;27;19923;-44
2022/10/03 02:06:44;;;;;;;;;;;;;;;;;;2132543;27;19923;-44
2022/10/03 02:07:45;;;;;;;;;;;;;;;;;;2133368;27;19925;-45
2022/10/03 02:08:46;;;;;;;;;;;;;;;;;;2133316;27;20364;-44
2022/10/03 02:09:46;;;;;;;;;;;;;;;;;;2133315;27;19923;-46
2022/10/03 02:10:47;;;;;;;;;;;;;;;;;;2133223;27;19969;-45
2022/10/03 02:11:48;;;;;;;;;;;;;;;;;;2133097;27;19973;-44
2022/10/03 02:12:49;;;;;;;;;;;;;;;;;;2133448;27;20272;-47
2022/10/03 02:13:51;;;;;;;;;;;;;;;;;;2133374;27;20011;-47
2022/10/03 02:14:52;;;;;;;;;;;;;;;;;;2133394;27;19972;-47
2022/10/03 02:15:53;;;;;;;;;;;;;;;;;;2133199;27;19923;-47
2022/10/03 02:16:56;;;;;;;;;;;;;;;;;;2133163;27;19930;-47
2022/10/03 02:17:57;;;;;;;;;;;;;;;;;;2133401;27;20399;-45
2022/10/03 02:18:57;;;;;;;;;;;;;;;;;;2133231;27;19930;-45
2022/10/03 02:19:58;;;;;;;;;;;;;;;;;;2133259;27;19923;-44
2022/10/03 02:20:59;;;;;;;;;;;;;;;;;;2133221;27;20018;-45
2022/10/03 02:22:01;;;;;;;;;;;;;;;;;;2133257;27;19923;-45
2022/10/03 02:23:02;;;;;;;;;;;;;;;;;;2133266;27;19931;-45
2022/10/03 02:24:02;;;;;;;;;;;;;;;;;;2133204;27;20368;-45
2022/10/03 02:25:04;;;;;;;;;;;;;;;;;;2133337;27;19934;-45
2022/10/03 02:26:05;;;;;;;;;;;;;;;;;;2133348;27;20342;-45
2022/10/03 02:27:06;;;;;;;;;;;;;;;;;;2132893;27;19931;-45
2022/10/03 02:28:07;;;;;;;;;;;;;;;;;;2133312;27;20455;-44
2022/10/03 02:29:09;;;;;;;;;;;;;;;;;;2133187;27;20019;-44
2022/10/03 02:30:10;;;;;;;;;;;;;;;;;;2133270;27;19976;-45
2022/10/03 02:31:10;;;;;;;;;;;;;;;;;;2133135;27;20064;-44
2022/10/03 02:32:11;;;;;;;;;;;;;;;;;;2133170;27;19971;-44
2022/10/03 02:33:12;;;;;;;;;;;;;;;;;;2133122;27;20321;-44
2022/10/03 02:34:14;;;;;;;;;;;;;;;;;;2133158;27;20091;-44
2022/10/03 02:35:15;;;;;;;;;;;;;;;;;;2133057;27;19934;-45
2022/10/03 02:36:16;;;;;;;;;;;;;;;;;;2133158;27;19930;-45
2022/10/03 02:37:18;;;;;;;;;;;;;;;;;;2133129;27;19931;-44
2022/10/03 02:38:18;;;;;;;;;;;;;;;;;;2133080;27;19975;-44
2022/10/03 02:39:19;;;;;;;;;;;;;;;;;;2133111;27;20279;-45
2022/10/03 02:40:21;;;;;;;;;;;;;;;;;;2133099;27;19923;-44
2022/10/03 02:41:22;;;;;;;;;;;;;;;;;;2133202;27;19927;-47
2022/10/03 02:42:24;;;;;;;;;;;;;;;;;;2133044;27;19923;-48
2022/10/03 02:43:25;;;;;;;;;;;;;;;;;;2133270;27;19923;-44
2022/10/03 02:44:25;;;;;;;;;;;;;;;;;;2133052;27;19966;-44
2022/10/03 02:45:26;;;;;;;;;;;;;;;;;;2133167;27;19969;-45
2022/10/03 02:46:27;;;;;;;;;;;;;;;;;;2133241;27;19999;-45
2022/10/03 02:47:28;;;;;;;;;;;;;;;;;;2133088;27;20026;-45
2022/10/03 02:48:29;;;;;;;;;;;;;;;;;;2133245;27;19927;-45
2022/10/03 02:49:33;;;;;;;;;;;;;;;;;;2132950;27;19981;-45
2022/10/03 02:50:34;;;;;;;;;;;;;;;;;;2132952;27;19976;-45
2022/10/03 02:51:35;;;;;;;;;;;;;;;;;;2132854;27;20010;-45
2022/10/03 02:52:35;;;;;;;;;;;;;;;;;;2132956;27;19971;-45
2022/10/03 02:53:37;;;;;;;;;;;;;;;;;;2132945;27;20364;-45
2022/10/03 02:54:37;;;;;;;;;;;;;;;;;;2133179;27;19979;-46
2022/10/03 02:55:38;;;;;;;;;;;;;;;;;;2132911;27;20379;-45
2022/10/03 02:56:39;;;;;;;;;;;;;;;;;;2133166;27;20153;-45
2022/10/03 02:57:40;;;;;;;;;;;;;;;;;;2132975;27;19923;-45
2022/10/03 02:58:41;;;;;;;;;;;;;;;;;;2132959;27;19930;-45
2022/10/03 02:59:41;;;;;;;;;;;;;;;;;;2133105;27;19927;-46
2022/10/03 03:00:42;;;;;;;;;;;;;;;;;;2133118;27;19977;-48
2022/10/03 03:01:43;;;;;;;;;;;;;;;;;;2133042;27;20038;-45
2022/10/03 03:02:44;;;;;;;;;;;;;;;;;;2132915;27;19938;-45
2022/10/03 03:03:45;;;;;;;;;;;;;;;;;;2133277;27;19923;-45
2022/10/03 03:04:45;;;;;;;;;;;;;;;;;;2133010;27;20428;-45
2022/10/03 03:05:47;;;;;;;;;;;;;;;;;;2133067;27;20351;-45
2022/10/03 03:06:48;;;;;;;;;;;;;;;;;;2133005;27;20065;-45
2022/10/03 03:07:49;;;;;;;;;;;;;;;;;;2133024;27;19972;-46
2022/10/03 03:08:50;;;;;;;;;;;;;;;;;;2132929;27;19923;-45
2022/10/03 03:09:50;;;;;;;;;;;;;;;;;;2132808;27;20007;-45
2022/10/03 03:10:51;;;;;;;;;;;;;;;;;;2133042;27;20372;-45
2022/10/03 03:11:53;;;;;;;;;;;;;;;;;;2132599;27;19927;-45
2022/10/03 03:12:54;;;;;;;;;;;;;;;;;;2132851;27;20360;-45
2022/10/03 03:13:54;;;;;;;;;;;;;;;;;;2132863;27;19927;-46
2022/10/03 03:14:56;;;;;;;;;;;;;;;;;;2132827;27;20017;-45
2022/10/03 03:15:57;;;;;;;;;;;;;;;;;;2132755;27;20269;-44
2022/10/03 03:16:58;;;;;;;;;;;;;;;;;;2132815;27;19944;-45
2022/10/03 03:17:58;;;;;;;;;;;;;;;;;;2131720;27;19923;-46
2022/10/03 03:18:59;;;;;;;;;;;;;;;;;;2132580;27;19930;-45
2022/10/03 03:20:00;;;;;;;;;;;;;;;;;;2132958;27;19924;-46
2022/10/03 03:21:02;;;;;;;;;;;;;;;;;;2132777;27;19923;-46
2022/10/03 03:22:02;;;;;;;;;;;;;;;;;;2132704;27;19923;-46
2022/10/03 03:23:03;;;;;;;;;;;;;;;;;;2132639;27;19922;-45
2022/10/03 03:24:04;;;;;;;;;;;;;;;;;;2133046;27;20276;-51
2022/10/03 03:25:05;;;;;;;;;;;;;;;;;;2132817;27;19923;-50
2022/10/03 03:26:06;;;;;;;;;;;;;;;;;;2132832;27;19923;-49
2022/10/03 03:27:07;;;;;;;;;;;;;;;;;;2132660;27;20030;-49
2022/10/03 03:28:09;;;;;;;;;;;;;;;;;;2132926;27;19929;-46
2022/10/03 03:29:10;;;;;;;;;;;;;;;;;;2132878;27;19962;-47
2022/10/03 03:30:10;;;;;;;;;;;;;;;;;;2132679;27;20380;-49
2022/10/03 03:31:12;;;;;;;;;;;;;;;;;;2133307;27;20000;-45
2022/10/03 03:32:13;;;;;;;;;;;;;;;;;;2132764;27;19978;-45
2022/10/03 03:33:14;;;;;;;;;;;;;;;;;;2132736;27;20315;-45
2022/10/03 03:34:14;;;;;;;;;;;;;;;;;;2132767;27;19927;-45
2022/10/03 03:35:17;;;;;;;;;;;;;;;;;;2132703;27;20029;-45
2022/10/03 03:36:18;;;;;;;;;;;;;;;;;;2132786;27;19938;-45
2022/10/03 03:37:18;;;;;;;;;;;;;;;;;;2132921;27;20379;-46
2022/10/03 03:38:19;;;;;;;;;;;;;;;;;;2132633;27;20285;-45
2022/10/03 03:39:20;;;;;;;;;;;;;;;;;;2132858;27;19923;-45
2022/10/03 03:40:21;;;;;;;;;;;;;;;;;;2132814;27;20025;-45
2022/10/03 03:41:22;;;;;;;;;;;;;;;;;;2132699;27;20276;-45
2022/10/03 03:42:23;;;;;;;;;;;;;;;;;;2132825;27;19952;-46
2022/10/03 03:43:24;;;;;;;;;;;;;;;;;;2132665;27;19930;-45
2022/10/03 03:44:25;;;;;;;;;;;;;;;;;;2132897;27;19927;-45
2022/10/03 03:45:28;;;;;;;;;;;;;;;;;;2132565;27;19923;-46
2022/10/03 03:46:29;;;;;;;;;;;;;;;;;;2132774;27;19968;-45
2022/10/03 03:47:30;;;;;;;;;;;;;;;;;;2124129;28;19996;-45
2022/10/03 03:48:31;;;;;;;;;;;;;;;;;;2124207;28;19930;-45
2022/10/03 03:49:32;;;;;;;;;;;;;;;;;;2124029;28;19927;-45
2022/10/03 03:50:33;;;;;;;;;;;;;;;;;;2124121;28;19935;-45
2022/10/03 03:51:33;;;;;;;;;;;;;;;;;;2123964;27;19930;-45
2022/10/03 03:52:34;;;;;;;;;;;;;;;;;;2123966;28;19931;-45
2022/10/03 03:53:35;;;;;;;;;;;;;;;;;;2124084;28;19969;-45
2022/10/03 03:54:36;;;;;;;;;;;;;;;;;;2124279;28;19923;-52
2022/10/03 03:55:37;;;;;;;;;;;;;;;;;;2124062;28;19930;-48
2022/10/03 03:56:38;;;;;;;;;;;;;;;;;;2124035;27;19930;-49
2022/10/03 03:57:40;;;;;;;;;;;;;;;;;;2124163;28;20296;-50
2022/10/03 03:58:40;;;;;;;;;;;;;;;;;;2123969;28;20218;-48
2022/10/03 03:59:41;;;;;;;;;;;;;;;;;;2124339;28;19948;-52
2022/10/03 04:00:42;;;;;;;;;;;;;;;;;;2123929;28;20038;-47
2022/10/03 04:01:43;;;;;;;;;;;;;;;;;;2124186;27;20011;-46
2022/10/03 04:02:45;;;;;;;;;;;;;;;;;;2124092;28;20014;-48
2022/10/03 04:03:46;;;;;;;;;;;;;;;;;;2123964;28;19923;-46
2022/10/03 04:04:47;;;;;;;;;;;;;;;;;;2123960;28;20399;-47
2022/10/03 04:05:49;;;;;;;;;;;;;;;;;;2124131;28;20026;-46
2022/10/03 04:06:50;;;;;;;;;;;;;;;;;;2123889;27;19930;-46
2022/10/03 04:07:50;;;;;;;;;;;;;;;;;;2123884;28;19977;-46
2022/10/03 04:08:58;;;;;;;;;;;;;;;;;;2124076;28;19959;-47
2022/10/03 04:09:59;;;;;;;;;;;;;;;;;;2124116;28;20380;-47
2022/10/03 04:11:00;;;;;;;;;;;;;;;;;;2123833;28;19955;-46
2022/10/03 04:12:04;;;;;;;;;;;;;;;;;;2131976;27;19923;-47
2022/10/03 04:13:05;;;;;;;;;;;;;;;;;;2132432;27;19930;-47
2022/10/03 04:14:05;;;;;;;;;;;;;;;;;;2132418;27;19997;-47
2022/10/03 04:15:06;;;;;;;;;;;;;;;;;;2132481;27;19929;-46
2022/10/03 04:16:07;;;;;;;;;;;;;;;;;;2132382;27;20004;-46
2022/10/03 04:19:47;;;;;;;;;;;;;;;;;;2132466;27;19923;-45
2022/10/03 04:20:48;;;;;;;;;;;;;;;;;;2132461;27;19930;-44
2022/10/03 04:21:49;;;;;;;;;;;;;;;;;;2132271;27;19966;-45
2022/10/03 04:22:50;;;;;;;;;;;;;;;;;;2132523;27;19927;-44
2022/10/03 04:23:51;;;;;;;;;;;;;;;;;;2132766;27;20292;-47
2022/10/03 04:24:53;;;;;;;;;;;;;;;;;;2132512;27;19923;-49
2022/10/03 04:25:54;;;;;;;;;;;;;;;;;;2132343;27;19946;-49
2022/10/03 04:26:58;;;;;;;;;;;;;;;;;;2132322;27;19923;-49
2022/10/03 04:27:59;;;;;;;;;;;;;;;;;;2132460;27;19967;-49
2022/10/03 04:29:01;;;;;;;;;;;;;;;;;;2132467;27;20119;-46
2022/10/03 04:30:02;;;;;;;;;;;;;;;;;;2132176;27;20334;-46
2022/10/03 04:31:02;;;;;;;;;;;;;;;;;;2132445;27;19927;-45
2022/10/03 04:32:06;;;;;;;;;;;;;;;;;;2132164;27;19924;-46
2022/10/03 04:33:07;;;;;;;;;;;;;;;;;;2132338;27;19930;-46
2022/10/03 04:34:08;;;;;;;;;;;;;;;;;;2132360;27;19976;-45
2022/10/03 04:35:09;;;;;;;;;;;;;;;;;;2132294;27;20425;-46
2022/10/03 04:36:10;;;;;;;;;;;;;;;;;;2132282;27;19930;-46
2022/10/03 04:37:11;;;;;;;;;;;;;;;;;;2132619;27;20292;-49
2022/10/03 04:38:12;;;;;;;;;;;;;;;;;;2132393;27;19958;-48
2022/10/03 04:39:12;;;;;;;;;;;;;;;;;;2132362;27;20325;-49
2022/10/03 04:40:13;;;;;;;;;;;;;;;;;;2132281;27;19973;-49
2022/10/03 04:41:14;;;;;;;;;;;;;;;;;;2132381;27;19923;-50
2022/10/03 04:42:15;;;;;;;;;;;;;;;;;;2132321;27;20311;-48
2022/10/03 04:43:16;;;;;;;;;;;;;;;;;;2132353;27;19975;-46
2022/10/03 04:44:16;;;;;;;;;;;;;;;;;;2132439;27;19973;-45
2022/10/03 04:45:17;;;;;;;;;;;;;;;;;;2132346;27;20046;-45
2022/10/03 04:46:18;;;;;;;;;;;;;;;;;;2132692;27;19923;-45
2022/10/03 04:47:19;;;;;;;;;;;;;;;;;;2132296;27;19930;-45
2022/10/03 04:48:20;;;;;;;;;;;;;;;;;;2132270;27;19970;-45
2022/10/03 04:49:20;;;;;;;;;;;;;;;;;;2132411;27;20053;-45
2022/10/03 04:50:21;;;;;;;;;;;;;;;;;;2132280;27;20003;-45
2022/10/03 04:51:23;;;;;;;;;;;;;;;;;;2132155;27;19987;-45
2022/10/03 04:52:24;;;;;;;;;;;;;;;;;;2132163;27;20292;-45
2022/10/03 04:53:24;;;;;;;;;;;;;;;;;;2132091;27;19926;-45
2022/10/03 04:54:25;;;;;;;;;;;;;;;;;;2132508;27;19923;-46
2022/10/03 04:55:26;;;;;;;;;;;;;;;;;;2132184;27;20004;-46
2022/10/03 04:56:27;;;;;;;;;;;;;;;;;;2132078;27;20283;-45
2022/10/03 04:57:28;;;;;;;;;;;;;;;;;;2132218;27;19972;-46
2022/10/03 04:58:29;;;;;;;;;;;;;;;;;;2132553;27;19923;-46
2022/10/03 04:59:30;;;;;;;;;;;;;;;;;;2132187;27;20419;-46
2022/10/03 05:00:32;;;;;;;;;;;;;;;;;;2132134;27;20276;-45
2022/10/03 05:01:32;;;;;;;;;;;;;;;;;;2132174;27;19931;-45
2022/10/03 05:02:34;;;;;;;;;;;;;;;;;;2132278;27;20066;-45
2022/10/03 05:03:35;;;;;;;;;;;;;;;;;;2132618;27;19931;-47
2022/10/03 05:04:36;;;;;;;;;;;;;;;;;;2132335;27;19923;-45
2022/10/03 05:05:37;;;;;;;;;;;;;;;;;;2132282;27;19930;-45
2022/10/03 05:06:40;;;;;;;;;;;;;;;;;;2132006;27;19946;-45
2022/10/03 05:07:41;;;;;;;;;;;;;;;;;;2132245;27;19923;-45
2022/10/03 05:08:42;;;;;;;;;;;;;;;;;;2132133;27;19931;-45
2022/10/03 05:09:43;;;;;;;;;;;;;;;;;;2131978;27;19927;-45
2022/10/03 05:10:43;;;;;;;;;;;;;;;;;;2132097;27;19980;-45
2022/10/03 05:11:45;;;;;;;;;;;;;;;;;;2131759;27;19945;-45
2022/10/03 05:12:46;;;;;;;;;;;;;;;;;;2132014;27;20284;-44
2022/10/03 05:13:47;;;;;;;;;;;;;;;;;;2132198;27;19922;-45
2022/10/03 05:14:48;;;;;;;;;;;;;;;;;;2132168;27;19927;-45
2022/10/03 05:15:50;;;;;;;;;;;;;;;;;;2131866;27;20391;-47
2022/10/03 05:16:51;;;;;;;;;;;;;;;;;;2132116;27;19923;-47
2022/10/03 05:17:52;;;;;;;;;;;;;;;;;;2132086;27;19927;-47
2022/10/03 05:18:53;;;;;;;;;;;;;;;;;;2132167;27;19923;-47
2022/10/03 05:19:53;;;;;;;;;;;;;;;;;;2132155;27;19974;-44
2022/10/03 05:20:54;;;;;;;;;;;;;;;;;;2132257;27;20017;-44
2022/10/03 05:21:55;;;;;;;;;;;;;;;;;;2131951;27;19923;-44
2022/10/03 05:22:56;;;;;;;;;;;;;;;;;;2132091;27;20015;-44
2022/10/03 05:24:01;;;;;;;;;;;;;;;;;;2132178;27;19945;-45
2022/10/03 05:25:02;;;;;;;;;;;;;;;;;;2132213;27;19927;-44
2022/10/03 05:26:03;;;;;;;;;;;;;;;;;;2131972;27;20388;-44
2022/10/03 05:27:24;;;;;;;;;;;;;;;;;;2131943;27;20372;-44
2022/10/03 05:28:25;;;;;;;;;;;;;;;;;;2132143;27;19923;-44
2022/10/03 05:29:26;;;;;;;;;;;;;;;;;;2131906;27;19931;-44
2022/10/03 05:30:34;;;;;;;;;;;;;;;;;;2132178;27;19922;-44
2022/10/03 05:31:35;;;;;;;;;;;;;;;;;;2132140;27;19923;-47
2022/10/03 05:32:35;;;;;;;;;;;;;;;;;;2132026;27;19958;-47
2022/10/03 05:33:36;;;;;;;;;;;;;;;;;;2131956;27;20325;-47
2022/10/03 05:34:37;;;;;;;;;;;;;;;;;;2131941;27;19923;-48
2022/10/03 05:35:38;;;;;;;;;;;;;;;;;;2131868;27;19923;-47
2022/10/03 05:36:39;;;;;;;;;;;;;;;;;;2132060;27;20015;-46
2022/10/03 05:37:41;;;;;;;;;;;;;;;;;;2132035;27;19971;-47
2022/10/03 05:38:42;;;;;;;;;;;;;;;;;;2132179;27;20327;-48
2022/10/03 05:39:43;;;;;;;;;;;;;;;;;;2132114;27;19934;-44
2022/10/03 05:40:43;;;;;;;;;;;;;;;;;;2131452;27;19924;-44
2022/10/03 05:41:44;;;;;;;;;;;;;;;;;;2131587;27;20380;-45
2022/10/03 05:42:54;;;;;;;;;;;;;;;;;;2132081;27;20361;-47
2022/10/03 05:43:57;;;;;;;;;;;;;;;;;;2132014;27;19923;-48
2022/10/03 05:44:57;;;;;;;;;;;;;;;;;;2131920;27;19931;-50
2022/10/03 05:45:58;;;;;;;;;;;;;;;;;;2132215;27;19923;-44
2022/10/03 05:46:59;;;;;;;;;;;;;;;;;;2131887;27;19927;-44
2022/10/03 05:48:00;;;;;;;;;;;;;;;;;;2132396;27;20417;-47
2022/10/03 05:49:02;;;;;;;;;;;;;;;;;;2132055;27;20010;-46
2022/10/03 05:50:04;;;;;;;;;;;;;;;;;;2132175;27;19931;-48
2022/10/03 05:51:12;;;;;;;;;;;;;;;;;;2132044;27;19923;-51
2022/10/03 05:52:13;;;;;;;;;;;;;;;;;;2132353;27;20437;-48
2022/10/03 05:53:14;;;;;;;;;;;;;;;;;;2131782;27;19934;-48
2022/10/03 05:54:15;;;;;;;;;;;;;;;;;;2132319;27;19931;-44
2022/10/03 05:55:16;;;;;;;;;;;;;;;;;;2131833;27;20002;-44
2022/10/03 05:56:17;;;;;;;;;;;;;;;;;;2131741;27;20006;-44
2022/10/03 05:57:17;;;;;;;;;;;;;;;;;;2131786;27;19968;-44
2022/10/03 05:58:19;;;;;;;;;;;;;;;;;;2131755;27;19923;-45
2022/10/03 05:59:19;;;;;;;;;;;;;;;;;;2132559;27;19923;-44
2022/10/03 06:00:20;;;;;;;;;;;;;;;;;;2131777;27;19931;-44
2022/10/03 06:01:21;;;;;;;;;;;;;;;;;;2131830;27;19931;-43
2022/10/03 06:02:22;;;;;;;;;;;;;;;;;;2131726;27;20019;-44
2022/10/03 06:03:23;;;;;;;;;;;;;;;;;;2132334;27;19927;-44
2022/10/03 06:04:24;;;;;;;;;;;;;;;;;;2131931;27;19923;-44
2022/10/03 06:05:24;;;;;;;;;;;;;;;;;;2131680;27;19923;-45
2022/10/03 06:06:25;;;;;;;;;;;;;;;;;;2131812;27;19923;-43
2022/10/03 06:07:26;;;;;;;;;;;;;;;;;;2132152;27;20408;-46
2022/10/03 06:08:27;;;;;;;;;;;;;;;;;;2131935;27;19930;-47
2022/10/03 06:09:28;;;;;;;;;;;;;;;;;;2132087;27;19931;-43
2022/10/03 06:10:30;;;;;;;;;;;;;;;;;;2132298;27;20376;-47
2022/10/03 06:11:31;;;;;;;;;;;;;;;;;;2131714;27;19923;-47
2022/10/03 06:12:32;;;;;;;;;;;;;;;;;;2131743;27;19990;-46
2022/10/03 06:13:34;;;;;;;;;;;;;;;;;;2132024;27;20018;-47
2022/10/03 06:14:35;;;;;;;;;;;;;;;;;;2131926;27;20264;-43
2022/10/03 06:15:37;;;;;;;;;;;;;;;;;;2132061;27;19930;-47
2022/10/03 06:16:38;;;;;;;;;;;;;;;;;;2131656;27;19923;-47
2022/10/03 06:17:38;;;;;;;;;;;;;;;;;;2132030;27;19978;-47
2022/10/03 06:18:43;;;;;;;;;;;;;;;;;;2131670;27;20395;-47
2022/10/03 06:19:44;;;;;;;;;;;;;;;;;;2131671;27;19927;-47
2022/10/03 06:20:45;;;;;;;;;;;;;;;;;;2131674;27;19929;-47
2022/10/03 06:21:45;;;;;;;;;;;;;;;;;;2131688;27;19927;-47
2022/10/03 06:22:46;;;;;;;;;;;;;;;;;;2131901;27;20433;-44
2022/10/03 06:23:48;;;;;;;;;;;;;;;;;;2131693;27;19967;-48
2022/10/03 06:24:49;;;;;;;;;;;;;;;;;;2131817;27;20008;-44
2022/10/03 06:25:49;;;;;;;;;;;;;;;;;;2132092;27;19950;-47
2022/10/03 06:26:50;;;;;;;;;;;;;;;;;;2131864;27;20017;-44
2022/10/03 06:27:51;;;;;;;;;;;;;;;;;;2131676;27;19924;-44
2022/10/03 06:28:52;;;;;;;;;;;;;;;;;;2131970;27;20408;-45
2022/10/03 06:29:53;;;;;;;;;;;;;;;;;;2131844;27;19923;-47
2022/10/03 06:30:54;;;;;;;;;;;;;;;;;;2131813;27;19923;-43
2022/10/03 06:31:55;;;;;;;;;;;;;;;;;;2131871;27;19923;-46
2022/10/03 06:32:56;;;;;;;;;;;;;;;;;;2132157;27;19927;-43
2022/10/03 06:33:57;;;;;;;;;;;;;;;;;;2131672;27;19923;-43
2022/10/03 06:34:58;;;;;;;;;;;;;;;;;;2132558;27;19942;-43
2022/10/03 06:35:59;;;;;;;;;;;;;;;;;;2131919;27;19922;-49
2022/10/03 06:37:00;;;;;;;;;;;;;;;;;;2131542;27;19923;-48
2022/10/03 06:38:00;;;;;;;;;;;;;;;;;;2131763;27;19923;-45
2022/10/03 06:39:02;;;;;;;;;;;;;;;;;;2132381;27;19930;-46
2022/10/03 06:40:02;;;;;;;;;;;;;;;;;;2131972;27;20318;-44
2022/10/03 06:41:08;;;;;;;;;;;;;;;;;;2131486;27;19930;-45
2022/10/03 06:42:09;;;;;;;;;;;;;;;;;;2132034;27;19923;-44
2022/10/03 06:43:10;;;;;;;;;;;;;;;;;;2131530;27;19923;-43
2022/10/03 06:44:11;;;;;;;;;;;;;;;;;;2131690;27;19955;-43
2022/10/03 06:45:12;;;;;;;;;;;;;;;;;;2131754;27;19970;-45
2022/10/03 06:46:14;;;;;;;;;;;;;;;;;;2131956;27;19934;-44
2022/10/03 06:47:15;;;;;;;;;;;;;;;;;;2132013;27;19934;-45
2022/10/03 06:48:16;;;;;;;;;;;;;;;;;;2131912;27;19923;-44
2022/10/03 06:49:17;;;;;;;;;;;;;;;;;;2131624;27;19923;-44
2022/10/03 06:50:18;;;;;;;;;;;;;;;;;;2132074;27;20376;-44
2022/10/03 06:51:19;;;;;;;;;;;;;;;;;;2131923;27;19937;-46
2022/10/03 06:52:20;;;;;;;;;;;;;;;;;;2131820;27;19923;-45
2022/10/03 06:53:21;;;;;;;;;;;;;;;;;;2133154;27;19974;-46
2022/10/03 06:54:21;;;;;;;;;;;;;;;;;;2133083;27;19931;-47
2022/10/03 06:55:22;;;;;;;;;;;;;;;;;;2133005;27;19930;-47
2022/10/03 06:56:23;;;;;;;;;;;;;;;;;;2133159;27;19927;-43
2022/10/03 06:57:24;;;;;;;;;;;;;;;;;;2133364;27;19955;-45
2022/10/03 06:58:26;;;;;;;;;;;;;;;;;;2133304;27;20285;-44
2022/10/03 06:59:27;;;;;;;;;;;;;;;;;;2133270;27;19948;-46
2022/10/03 07:00:28;;;;;;;;;;;;;;;;;;2133298;27;20243;-44
2022/10/03 07:01:28;;;;;;;;;;;;;;;;;;2132882;27;20395;-44
2022/10/03 07:02:29;;;;;;;;;;;;;;;;;;2133743;27;20023;-46
2022/10/03 07:03:31;;;;;;;;;;;;;;;;;;2132966;27;19927;-46